sensor_id;sensor_type;location;lat;lon;timestamp;pressure;altitude;pressure_sealevel;temperature;humidity
75505;BME280;64085;54.974;73.410;2023-03-23T00:02:23;99573.94;;;2.13;45.16
75505;BME280;64085;54.974;73.410;2023-03-23T00:04:48;99531.38;;;1.55;45.84
75505;BME280;64085;54.974;73.410;2023-03-23T00:07:14;99588.31;;;1.96;46.10
75505;BME280;64085;54.974;73.410;2023-03-23T00:09:49;99578.56;;;2.04;45.83
75505;BME280;64085;54.974;73.410;2023-03-23T00:12:27;99569.94;;;2.10;45.17
75505;BME280;64085;54.974;73.410;2023-03-23T00:17:27;99561.88;;;2.05;44.73
75505;BME280;64085;54.974;73.410;2023-03-23T00:19:52;99550.41;;;1.77;45.74
75505;BME280;64085;54.974;73.410;2023-03-23T00:22:18;99561.13;;;1.82;45.57
75505;BME280;64085;54.974;73.410;2023-03-23T00:24:47;99552.56;;;1.66;45.81
75505;BME280;64085;54.974;73.410;2023-03-23T00:27:16;99547.16;;;1.75;45.43
75505;BME280;64085;54.974;73.410;2023-03-23T00:29:42;99560.88;;;2.01;44.69
75505;BME280;64085;54.974;73.410;2023-03-23T00:32:11;99561.13;;;1.51;46.06
75505;BME280;64085;54.974;73.410;2023-03-23T00:34:42;99559.50;;;1.73;45.58
75505;BME280;64085;54.974;73.410;2023-03-23T00:37:09;99548.47;;;1.78;45.12
75505;BME280;64085;54.974;73.410;2023-03-23T00:39:35;99537.97;;;1.31;45.61
75505;BME280;64085;54.974;73.410;2023-03-23T00:42:04;99530.78;;;1.35;45.64
75505;BME280;64085;54.974;73.410;2023-03-23T00:44:32;99537.81;;;1.67;45.19
75505;BME280;64085;54.974;73.410;2023-03-23T00:47:00;99518.09;;;1.31;45.55
75505;BME280;64085;54.974;73.410;2023-03-23T00:49:26;99546.09;;;1.54;45.33
75505;BME280;64085;54.974;73.410;2023-03-23T00:51:56;99532.41;;;0.69;46.65
75505;BME280;64085;54.974;73.410;2023-03-23T00:54:24;99526.84;;;1.19;45.95
75505;BME280;64085;54.974;73.410;2023-03-23T00:56:50;99532.47;;;1.23;45.50
75505;BME280;64085;54.974;73.410;2023-03-23T00:59:16;99501.53;;;0.74;45.63
75505;BME280;64085;54.974;73.410;2023-03-23T01:01:42;99535.03;;;1.19;45.45
75505;BME280;64085;54.974;73.410;2023-03-23T01:04:08;99524.34;;;1.09;45.94
75505;BME280;64085;54.974;73.410;2023-03-23T01:06:38;99521.94;;;1.07;45.00
75505;BME280;64085;54.974;73.410;2023-03-23T01:09:09;99487.41;;;0.86;44.84
75505;BME280;64085;54.974;73.410;2023-03-23T01:11:35;99502.59;;;1.09;45.22
75505;BME280;64085;54.974;73.410;2023-03-23T01:14:01;99497.41;;;0.99;44.86
75505;BME280;64085;54.974;73.410;2023-03-23T01:16:27;99466.41;;;1.08;44.24
75505;BME280;64085;54.974;73.410;2023-03-23T01:18:53;99495.94;;;1.24;43.61
75505;BME280;64085;54.974;73.410;2023-03-23T01:21:20;99492.47;;;1.63;43.07
75505;BME280;64085;54.974;73.410;2023-03-23T01:23:47;99504.72;;;1.43;42.87
75505;BME280;64085;54.974;73.410;2023-03-23T01:26:15;99476.91;;;1.24;42.75
75505;BME280;64085;54.974;73.410;2023-03-23T01:28:42;99469.72;;;1.28;43.03
75505;BME280;64085;54.974;73.410;2023-03-23T01:31:10;99467.81;;;1.28;42.54
75505;BME280;64085;54.974;73.410;2023-03-23T01:33:38;99459.44;;;2.73;39.66
75505;BME280;64085;54.974;73.410;2023-03-23T01:36:06;99469.00;;;3.61;37.98
75505;BME280;64085;54.974;73.410;2023-03-23T01:38:34;99448.06;;;2.63;38.55
75505;BME280;64085;54.974;73.410;2023-03-23T01:41:01;99465.38;;;2.58;39.02
75505;BME280;64085;54.974;73.410;2023-03-23T01:43:26;99469.38;;;2.26;39.09
75505;BME280;64085;54.974;73.410;2023-03-23T01:45:52;99466.25;;;1.93;39.97
75505;BME280;64085;54.974;73.410;2023-03-23T01:48:23;99458.03;;;1.76;40.41
75505;BME280;64085;54.974;73.410;2023-03-23T01:51:04;99478.66;;;2.08;40.19
75505;BME280;64085;54.974;73.410;2023-03-23T01:53:45;99483.03;;;2.52;38.99
75505;BME280;64085;54.974;73.410;2023-03-23T01:56:12;99440.03;;;2.49;38.93
75505;BME280;64085;54.974;73.410;2023-03-23T01:58:40;99457.44;;;1.79;39.85
75505;BME280;64085;54.974;73.410;2023-03-23T02:01:10;99467.47;;;2.44;38.91
75505;BME280;64085;54.974;73.410;2023-03-23T02:03:38;99460.88;;;2.28;39.29
75505;BME280;64085;54.974;73.410;2023-03-23T02:06:05;99472.59;;;2.71;38.55
75505;BME280;64085;54.974;73.410;2023-03-23T02:08:31;99429.44;;;2.21;39.21
75505;BME280;64085;54.974;73.410;2023-03-23T02:11:00;99449.78;;;2.15;39.46
75505;BME280;64085;54.974;73.410;2023-03-23T02:13:27;99458.00;;;2.50;38.61
75505;BME280;64085;54.974;73.410;2023-03-23T02:16:14;99451.72;;;2.58;38.72
75505;BME280;64085;54.974;73.410;2023-03-23T02:32:01;99460.88;;;3.44;37.07
75505;BME280;64085;54.974;73.410;2023-03-23T02:37:04;99441.72;;;5.19;33.30
75505;BME280;64085;54.974;73.410;2023-03-23T02:39:34;99443.78;;;6.85;31.91
75505;BME280;64085;54.974;73.410;2023-03-23T02:42:05;99457.03;;;8.56;28.07
75505;BME280;64085;54.974;73.410;2023-03-23T02:44:33;99464.34;;;11.45;24.67
75505;BME280;64085;54.974;73.410;2023-03-23T02:47:02;99442.91;;;12.34;23.25
75505;BME280;64085;54.974;73.410;2023-03-23T02:49:32;99453.09;;;15.02;20.18
75505;BME280;64085;54.974;73.410;2023-03-23T02:52:02;99460.94;;;12.68;22.37
75505;BME280;64085;54.974;73.410;2023-03-23T02:54:30;99466.19;;;11.30;23.70
75505;BME280;64085;54.974;73.410;2023-03-23T02:56:56;99451.19;;;10.11;24.62
75505;BME280;64085;54.974;73.410;2023-03-23T02:59:23;99463.88;;;8.43;27.21
75505;BME280;64085;54.974;73.410;2023-03-23T03:01:53;99466.25;;;7.78;28.10
75505;BME280;64085;54.974;73.410;2023-03-23T03:04:23;99453.22;;;7.59;28.71
75505;BME280;64085;54.974;73.410;2023-03-23T03:09:56;99451.84;;;6.25;31.23
75505;BME280;64085;54.974;73.410;2023-03-23T03:12:53;99447.69;;;6.43;30.90
75505;BME280;64085;54.974;73.410;2023-03-23T03:15:35;99436.38;;;5.23;32.97
75505;BME280;64085;54.974;73.410;2023-03-23T03:18:07;99461.03;;;5.92;32.30
75505;BME280;64085;54.974;73.410;2023-03-23T03:20:40;99466.19;;;6.87;31.45
75505;BME280;64085;54.974;73.410;2023-03-23T03:23:10;99463.25;;;6.80;31.04
75505;BME280;64085;54.974;73.410;2023-03-23T03:25:39;99467.59;;;6.81;30.90
75505;BME280;64085;54.974;73.410;2023-03-23T03:28:07;99466.09;;;6.83;31.04
75505;BME280;64085;54.974;73.410;2023-03-23T03:30:35;99447.50;;;6.24;32.34
75505;BME280;64085;54.974;73.410;2023-03-23T03:33:02;99460.53;;;7.23;30.93
75505;BME280;64085;54.974;73.410;2023-03-23T03:35:30;99456.31;;;6.70;31.57
75505;BME280;64085;54.974;73.410;2023-03-23T03:38:05;99459.38;;;5.55;33.96
75505;BME280;64085;54.974;73.410;2023-03-23T03:40:31;99456.75;;;5.71;34.26
75505;BME280;64085;54.974;73.410;2023-03-23T03:42:57;99470.81;;;5.57;33.91
75505;BME280;64085;54.974;73.410;2023-03-23T03:45:23;99457.94;;;5.94;34.10
75505;BME280;64085;54.974;73.410;2023-03-23T03:47:48;99440.63;;;5.32;34.38
75505;BME280;64085;54.974;73.410;2023-03-23T03:50:14;99441.91;;;5.02;35.66
75505;BME280;64085;54.974;73.410;2023-03-23T03:52:40;99443.22;;;5.17;35.80
75505;BME280;64085;54.974;73.410;2023-03-23T03:55:07;99448.66;;;5.50;35.21
75505;BME280;64085;54.974;73.410;2023-03-23T03:57:34;99433.91;;;5.30;36.17
75505;BME280;64085;54.974;73.410;2023-03-23T04:00:00;99404.56;;;5.67;35.43
75505;BME280;64085;54.974;73.410;2023-03-23T04:02:25;99422.84;;;6.00;35.50
75505;BME280;64085;54.974;73.410;2023-03-23T04:04:51;99419.13;;;6.32;34.75
75505;BME280;64085;54.974;73.410;2023-03-23T04:07:18;99417.69;;;6.10;34.78
75505;BME280;64085;54.974;73.410;2023-03-23T04:09:44;99431.03;;;5.87;35.44
75505;BME280;64085;54.974;73.410;2023-03-23T04:12:13;99434.34;;;6.30;34.81
75505;BME280;64085;54.974;73.410;2023-03-23T04:14:38;99442.72;;;6.89;34.86
75505;BME280;64085;54.974;73.410;2023-03-23T04:17:04;99451.41;;;7.35;33.96
75505;BME280;64085;54.974;73.410;2023-03-23T04:19:32;99454.53;;;7.49;34.00
75505;BME280;64085;54.974;73.410;2023-03-23T04:21:58;99432.69;;;7.72;33.92
75505;BME280;64085;54.974;73.410;2023-03-23T04:24:24;99451.00;;;8.15;32.80
75505;BME280;64085;54.974;73.410;2023-03-23T04:26:51;99462.91;;;8.35;32.62
75505;BME280;64085;54.974;73.410;2023-03-23T04:29:18;99455.03;;;8.72;31.93
75505;BME280;64085;54.974;73.410;2023-03-23T04:31:44;99467.69;;;8.38;33.48
75505;BME280;64085;54.974;73.410;2023-03-23T04:34:11;99473.69;;;7.93;33.56
75505;BME280;64085;54.974;73.410;2023-03-23T04:36:40;99468.44;;;7.25;35.48
75505;BME280;64085;54.974;73.410;2023-03-23T04:39:06;99464.47;;;7.54;35.19
75505;BME280;64085;54.974;73.410;2023-03-23T04:41:36;99462.34;;;7.03;35.68
75505;BME280;64085;54.974;73.410;2023-03-23T04:44:03;99446.09;;;6.30;37.04
75505;BME280;64085;54.974;73.410;2023-03-23T04:46:30;99477.25;;;7.02;36.10
75505;BME280;64085;54.974;73.410;2023-03-23T04:48:57;99487.22;;;7.23;35.85
75505;BME280;64085;54.974;73.410;2023-03-23T04:51:26;99483.47;;;6.87;36.71
75505;BME280;64085;54.974;73.410;2023-03-23T04:53:53;99469.53;;;6.80;37.54
75505;BME280;64085;54.974;73.410;2023-03-23T04:56:20;99486.91;;;7.12;37.85
75505;BME280;64085;54.974;73.410;2023-03-23T04:58:46;99500.38;;;7.01;38.35
75505;BME280;64085;54.974;73.410;2023-03-23T05:01:12;99504.13;;;6.81;40.08
75505;BME280;64085;54.974;73.410;2023-03-23T05:03:43;99498.97;;;6.03;42.67
75505;BME280;64085;54.974;73.410;2023-03-23T05:06:10;99510.13;;;5.85;44.88
75505;BME280;64085;54.974;73.410;2023-03-23T05:08:36;99510.34;;;5.56;46.39
75505;BME280;64085;54.974;73.410;2023-03-23T05:11:06;99516.78;;;5.84;46.14
75505;BME280;64085;54.974;73.410;2023-03-23T05:13:32;99520.66;;;5.83;46.62
75505;BME280;64085;54.974;73.410;2023-03-23T05:16:03;99497.69;;;5.76;47.62
75505;BME280;64085;54.974;73.410;2023-03-23T05:18:28;99524.25;;;5.51;49.34
75505;BME280;64085;54.974;73.410;2023-03-23T05:20:54;99524.66;;;5.74;49.68
75505;BME280;64085;54.974;73.410;2023-03-23T05:23:20;99538.81;;;5.88;49.83
75505;BME280;64085;54.974;73.410;2023-03-23T05:25:55;99500.97;;;5.57;50.63
75505;BME280;64085;54.974;73.410;2023-03-23T05:28:21;99531.56;;;6.16;49.73
75505;BME280;64085;54.974;73.410;2023-03-23T05:30:48;99524.94;;;6.17;49.36
75505;BME280;64085;54.974;73.410;2023-03-23T05:33:14;99524.88;;;5.69;50.23
75505;BME280;64085;54.974;73.410;2023-03-23T05:35:40;99526.41;;;6.03;50.40
75505;BME280;64085;54.974;73.410;2023-03-23T05:38:05;99535.44;;;6.28;49.36
75505;BME280;64085;54.974;73.410;2023-03-23T05:40:31;99525.22;;;6.53;50.65
75505;BME280;64085;54.974;73.410;2023-03-23T05:42:57;99543.34;;;5.14;63.21
75505;BME280;64085;54.974;73.410;2023-03-23T05:45:25;99547.72;;;5.27;65.90
75505;BME280;64085;54.974;73.410;2023-03-23T05:47:51;99541.81;;;5.83;65.35
75505;BME280;64085;54.974;73.410;2023-03-23T05:50:17;99538.84;;;5.30;65.84
75505;BME280;64085;54.974;73.410;2023-03-23T05:52:44;99553.06;;;5.57;66.41
75505;BME280;64085;54.974;73.410;2023-03-23T05:55:10;99543.00;;;6.06;67.36
75505;BME280;64085;54.974;73.410;2023-03-23T05:57:36;99549.09;;;6.76;65.91
75505;BME280;64085;54.974;73.410;2023-03-23T06:00:02;99554.72;;;6.68;65.23
75505;BME280;64085;54.974;73.410;2023-03-23T06:02:40;99554.69;;;6.80;64.67
75505;BME280;64085;54.974;73.410;2023-03-23T06:05:10;99564.31;;;6.86;64.12
75505;BME280;64085;54.974;73.410;2023-03-23T06:07:37;99567.75;;;6.83;64.48
75505;BME280;64085;54.974;73.410;2023-03-23T06:10:07;99571.69;;;6.58;62.64
75505;BME280;64085;54.974;73.410;2023-03-23T06:12:35;99579.44;;;6.68;65.60
75505;BME280;64085;54.974;73.410;2023-03-23T06:15:00;99579.94;;;7.10;63.96
75505;BME280;64085;54.974;73.410;2023-03-23T06:17:26;99584.28;;;7.39;65.29
75505;BME280;64085;54.974;73.410;2023-03-23T06:19:53;99587.19;;;7.30;64.35
75505;BME280;64085;54.974;73.410;2023-03-23T06:22:18;99591.25;;;7.49;65.28
75505;BME280;64085;54.974;73.410;2023-03-23T06:24:44;99592.91;;;8.13;65.84
75505;BME280;64085;54.974;73.410;2023-03-23T06:27:10;99589.09;;;8.49;63.65
75505;BME280;64085;54.974;73.410;2023-03-23T06:29:36;99593.53;;;8.69;64.28
75505;BME280;64085;54.974;73.410;2023-03-23T06:32:03;99591.28;;;9.29;64.58
75505;BME280;64085;54.974;73.410;2023-03-23T06:34:30;99601.84;;;9.66;64.46
75505;BME280;64085;54.974;73.410;2023-03-23T06:36:58;99600.06;;;9.54;66.16
75505;BME280;64085;54.974;73.410;2023-03-23T06:39:23;99599.19;;;9.31;63.19
75505;BME280;64085;54.974;73.410;2023-03-23T06:41:50;99600.56;;;9.60;66.22
75505;BME280;64085;54.974;73.410;2023-03-23T06:44:15;99596.28;;;10.05;65.21
75505;BME280;64085;54.974;73.410;2023-03-23T06:46:41;99606.00;;;10.67;64.22
75505;BME280;64085;54.974;73.410;2023-03-23T06:49:08;99617.88;;;11.24;67.42
75505;BME280;64085;54.974;73.410;2023-03-23T06:51:34;99610.09;;;12.01;64.70
75505;BME280;64085;54.974;73.410;2023-03-23T06:54:00;99607.63;;;12.33;65.60
75505;BME280;64085;54.974;73.410;2023-03-23T06:56:26;99607.16;;;12.24;66.04
75505;BME280;64085;54.974;73.410;2023-03-23T06:58:51;99614.03;;;11.66;65.63
75505;BME280;64085;54.974;73.410;2023-03-23T07:01:18;99612.06;;;11.67;65.17
75505;BME280;64085;54.974;73.410;2023-03-23T07:03:44;99614.31;;;10.94;65.21
75505;BME280;64085;54.974;73.410;2023-03-23T07:06:10;99615.09;;;10.94;63.94
75505;BME280;64085;54.974;73.410;2023-03-23T07:08:36;99624.13;;;10.65;63.95
75505;BME280;64085;54.974;73.410;2023-03-23T07:11:02;99617.59;;;10.27;64.17
75505;BME280;64085;54.974;73.410;2023-03-23T07:13:28;99618.06;;;10.10;62.83
75505;BME280;64085;54.974;73.410;2023-03-23T07:15:53;99623.22;;;10.11;65.97
75505;BME280;64085;54.974;73.410;2023-03-23T07:18:21;99623.66;;;10.13;65.26
75505;BME280;64085;54.974;73.410;2023-03-23T07:20:48;99631.09;;;9.90;65.30
75505;BME280;64085;54.974;73.410;2023-03-23T07:23:14;99633.34;;;10.50;64.53
75505;BME280;64085;54.974;73.410;2023-03-23T07:25:40;99625.66;;;10.16;63.94
75505;BME280;64085;54.974;73.410;2023-03-23T07:28:06;99632.25;;;10.54;63.98
75505;BME280;64085;54.974;73.410;2023-03-23T07:30:32;99637.72;;;10.51;63.66
75505;BME280;64085;54.974;73.410;2023-03-23T07:32:58;99640.97;;;11.36;66.34
75505;BME280;64085;54.974;73.410;2023-03-23T07:35:24;99639.44;;;12.46;62.65
75505;BME280;64085;54.974;73.410;2023-03-23T07:37:51;99628.84;;;12.15;62.52
75505;BME280;64085;54.974;73.410;2023-03-23T07:40:18;99648.69;;;11.83;62.35
75505;BME280;64085;54.974;73.410;2023-03-23T07:42:45;99648.09;;;11.37;61.82
75505;BME280;64085;54.974;73.410;2023-03-23T07:45:15;99646.22;;;11.78;62.43
75505;BME280;64085;54.974;73.410;2023-03-23T07:47:41;99656.69;;;11.92;62.24
75505;BME280;64085;54.974;73.410;2023-03-23T07:50:08;99657.16;;;12.38;60.76
75505;BME280;64085;54.974;73.410;2023-03-23T07:52:35;99665.28;;;13.12;64.21
75505;BME280;64085;54.974;73.410;2023-03-23T07:55:02;99665.09;;;12.87;59.30
75505;BME280;64085;54.974;73.410;2023-03-23T07:57:30;99671.97;;;13.73;61.65
75505;BME280;64085;54.974;73.410;2023-03-23T07:59:56;99659.47;;;14.86;60.21
75505;BME280;64085;54.974;73.410;2023-03-23T08:02:23;99669.38;;;15.09;58.83
75505;BME280;64085;54.974;73.410;2023-03-23T08:04:50;99672.53;;;14.43;55.85
75505;BME280;64085;54.974;73.410;2023-03-23T08:07:17;99681.31;;;14.49;57.31
75505;BME280;64085;54.974;73.410;2023-03-23T08:09:44;99678.56;;;14.81;60.63
75505;BME280;64085;54.974;73.410;2023-03-23T08:12:10;99684.13;;;14.91;62.25
75505;BME280;64085;54.974;73.410;2023-03-23T08:14:36;99682.09;;;14.53;60.01
75505;BME280;64085;54.974;73.410;2023-03-23T08:17:02;99681.19;;;14.02;58.73
75505;BME280;64085;54.974;73.410;2023-03-23T08:19:28;99683.88;;;13.08;58.14
75505;BME280;64085;54.974;73.410;2023-03-23T08:21:53;99680.13;;;12.83;59.38
75505;BME280;64085;54.974;73.410;2023-03-23T08:24:19;99669.69;;;11.01;56.90
75505;BME280;64085;54.974;73.410;2023-03-23T08:26:45;99635.56;;;10.40;59.32
75505;BME280;64085;54.974;73.410;2023-03-23T08:29:11;99688.78;;;11.66;60.37
75505;BME280;64085;54.974;73.410;2023-03-23T08:31:38;99677.88;;;10.67;56.42
75505;BME280;64085;54.974;73.410;2023-03-23T08:34:05;99679.13;;;10.05;55.99
75505;BME280;64085;54.974;73.410;2023-03-23T08:36:34;99678.50;;;9.53;59.33
75505;BME280;64085;54.974;73.410;2023-03-23T08:39:00;99701.59;;;10.46;56.85
75505;BME280;64085;54.974;73.410;2023-03-23T08:41:26;99712.81;;;10.33;56.04
75505;BME280;64085;54.974;73.410;2023-03-23T08:43:52;99724.31;;;10.81;57.92
75505;BME280;64085;54.974;73.410;2023-03-23T08:46:18;99715.31;;;11.11;57.14
75505;BME280;64085;54.974;73.410;2023-03-23T08:48:45;99734.06;;;10.75;56.37
75505;BME280;64085;54.974;73.410;2023-03-23T08:51:11;99723.16;;;11.09;56.01
75505;BME280;64085;54.974;73.410;2023-03-23T08:53:38;99724.78;;;10.41;49.62
75505;BME280;64085;54.974;73.410;2023-03-23T08:56:09;99725.06;;;10.55;51.19
75505;BME280;64085;54.974;73.410;2023-03-23T08:58:39;99734.88;;;10.53;49.51
75505;BME280;64085;54.974;73.410;2023-03-23T09:01:06;99736.75;;;10.68;48.06
75505;BME280;64085;54.974;73.410;2023-03-23T09:03:34;99722.78;;;9.80;49.69
75505;BME280;64085;54.974;73.410;2023-03-23T09:06:05;99749.03;;;9.90;50.17
75505;BME280;64085;54.974;73.410;2023-03-23T09:08:32;99745.06;;;9.52;45.98
75505;BME280;64085;54.974;73.410;2023-03-23T09:11:09;99754.91;;;9.69;49.00
75505;BME280;64085;54.974;73.410;2023-03-23T09:13:36;99740.59;;;10.21;50.27
75505;BME280;64085;54.974;73.410;2023-03-23T09:16:03;99740.25;;;10.23;46.17
75505;BME280;64085;54.974;73.410;2023-03-23T09:18:30;99752.50;;;9.32;47.49
75505;BME280;64085;54.974;73.410;2023-03-23T09:20:58;99761.94;;;9.31;47.90
75505;BME280;64085;54.974;73.410;2023-03-23T09:23:24;99757.56;;;9.65;49.08
75505;BME280;64085;54.974;73.410;2023-03-23T09:25:50;99757.44;;;9.77;47.68
75505;BME280;64085;54.974;73.410;2023-03-23T09:28:17;99770.50;;;9.61;47.70
75505;BME280;64085;54.974;73.410;2023-03-23T09:30:43;99768.97;;;9.28;45.24
75505;BME280;64085;54.974;73.410;2023-03-23T09:33:09;99771.13;;;10.28;46.76
75505;BME280;64085;54.974;73.410;2023-03-23T09:35:36;99765.78;;;10.00;43.83
75505;BME280;64085;54.974;73.410;2023-03-23T09:38:04;99781.72;;;9.87;45.74
75505;BME280;64085;54.974;73.410;2023-03-23T09:40:44;99789.34;;;10.13;49.52
75505;BME280;64085;54.974;73.410;2023-03-23T09:48:40;99804.78;;;10.34;49.28
75505;BME280;64085;54.974;73.410;2023-03-23T09:51:15;99805.28;;;10.20;46.66
75505;BME280;64085;54.974;73.410;2023-03-23T09:53:47;99811.13;;;10.34;48.07
75505;BME280;64085;54.974;73.410;2023-03-23T09:56:15;99811.34;;;10.26;45.15
75505;BME280;64085;54.974;73.410;2023-03-23T10:01:44;99811.84;;;9.42;44.85
75505;BME280;64085;54.974;73.410;2023-03-23T10:04:21;99815.84;;;9.79;45.02
75505;BME280;64085;54.974;73.410;2023-03-23T10:06:49;99815.69;;;9.72;45.17
75505;BME280;64085;54.974;73.410;2023-03-23T10:09:17;99820.81;;;9.54;45.15
75505;BME280;64085;54.974;73.410;2023-03-23T10:12:01;99813.66;;;9.18;45.36
75505;BME280;64085;54.974;73.410;2023-03-23T10:17:23;99817.78;;;9.59;45.34
75505;BME280;64085;54.974;73.410;2023-03-23T10:23:20;99830.13;;;10.01;50.59
75505;BME280;64085;54.974;73.410;2023-03-23T10:25:58;99831.50;;;9.40;42.23
75505;BME280;64085;54.974;73.410;2023-03-23T10:31:03;99840.56;;;9.41;42.12
75505;BME280;64085;54.974;73.410;2023-03-23T10:33:36;99846.25;;;9.64;41.19
75505;BME280;64085;54.974;73.410;2023-03-23T10:36:26;99840.47;;;9.69;38.36
75505;BME280;64085;54.974;73.410;2023-03-23T10:41:20;99844.03;;;9.69;43.75
75505;BME280;64085;54.974;73.410;2023-03-23T10:43:47;99870.03;;;9.21;38.32
75505;BME280;64085;54.974;73.410;2023-03-23T10:49:06;99869.56;;;8.87;38.76
75505;BME280;64085;54.974;73.410;2023-03-23T10:51:40;99877.50;;;9.20;37.47
75505;BME280;64085;54.974;73.410;2023-03-23T10:54:07;99885.63;;;9.29;38.63
75505;BME280;64085;54.974;73.410;2023-03-23T10:56:42;99879.19;;;9.41;35.52
75505;BME280;64085;54.974;73.410;2023-03-23T10:59:19;99885.88;;;9.08;37.51
75505;BME280;64085;54.974;73.410;2023-03-23T11:01:50;99863.38;;;9.22;36.39
75505;BME280;64085;54.974;73.410;2023-03-23T11:04:17;99896.34;;;9.81;36.85
75505;BME280;64085;54.974;73.410;2023-03-23T11:06:58;99899.91;;;10.17;37.80
75505;BME280;64085;54.974;73.410;2023-03-23T11:09:39;99875.72;;;9.59;35.57
75505;BME280;64085;54.974;73.410;2023-03-23T11:12:17;99899.22;;;9.53;36.70
75505;BME280;64085;54.974;73.410;2023-03-23T11:14:44;99902.16;;;9.45;35.26
75505;BME280;64085;54.974;73.410;2023-03-23T11:17:25;99910.44;;;10.11;40.17
75505;BME280;64085;54.974;73.410;2023-03-23T11:19:52;99903.06;;;10.00;36.98
75505;BME280;64085;54.974;73.410;2023-03-23T11:22:29;99910.88;;;9.63;38.84
75505;BME280;64085;54.974;73.410;2023-03-23T11:25:00;99915.78;;;9.53;37.35
75505;BME280;64085;54.974;73.410;2023-03-23T11:27:27;99894.22;;;8.96;35.82
75505;BME280;64085;54.974;73.410;2023-03-23T11:29:55;99901.22;;;8.50;35.77
75505;BME280;64085;54.974;73.410;2023-03-23T11:32:28;99932.91;;;8.43;38.19
75505;BME280;64085;54.974;73.410;2023-03-23T11:35:00;99938.16;;;9.05;38.79
75505;BME280;64085;54.974;73.410;2023-03-23T11:37:35;99943.63;;;9.32;37.06
75505;BME280;64085;54.974;73.410;2023-03-23T11:42:47;99961.72;;;9.02;39.15
75505;BME280;64085;54.974;73.410;2023-03-23T11:51:13;99966.00;;;9.15;35.61
75505;BME280;64085;54.974;73.410;2023-03-23T11:56:37;99963.13;;;8.96;37.72
75505;BME280;64085;54.974;73.410;2023-03-23T11:59:10;99968.16;;;8.78;39.68
75505;BME280;64085;54.974;73.410;2023-03-23T12:01:52;99980.78;;;8.79;37.24
75505;BME280;64085;54.974;73.410;2023-03-23T12:04:31;99984.66;;;8.50;36.54
75505;BME280;64085;54.974;73.410;2023-03-23T12:07:19;99975.72;;;7.68;35.36
75505;BME280;64085;54.974;73.410;2023-03-23T12:10:23;99984.66;;;7.89;36.80
75505;BME280;64085;54.974;73.410;2023-03-23T12:12:55;99990.16;;;8.38;36.51
75505;BME280;64085;54.974;73.410;2023-03-23T12:15:26;99987.00;;;8.64;36.37
75505;BME280;64085;54.974;73.410;2023-03-23T12:21:12;99997.75;;;7.92;39.30
75505;BME280;64085;54.974;73.410;2023-03-23T12:23:21;100003.25;;;7.68;37.21
75505;BME280;64085;54.974;73.410;2023-03-23T12:28:33;100004.59;;;7.49;40.83
75505;BME280;64085;54.974;73.410;2023-03-23T12:39:14;100014.28;;;7.34;40.05
75505;BME280;64085;54.974;73.410;2023-03-23T12:41:59;100017.44;;;7.70;44.43
75505;BME280;64085;54.974;73.410;2023-03-23T12:44:52;99986.78;;;7.34;43.36
75505;BME280;64085;54.974;73.410;2023-03-23T12:52:43;100037.03;;;7.23;42.10
75505;BME280;64085;54.974;73.410;2023-03-23T12:55:26;100031.03;;;6.88;43.92
75505;BME280;64085;54.974;73.410;2023-03-23T12:58:41;100029.97;;;6.59;41.79
75505;BME280;64085;54.974;73.410;2023-03-23T13:00:56;100050.88;;;6.72;42.90
75505;BME280;64085;54.974;73.410;2023-03-23T13:03:33;100051.56;;;6.90;42.60
75505;BME280;64085;54.974;73.410;2023-03-23T13:06:21;100044.78;;;6.88;44.04
75505;BME280;64085;54.974;73.410;2023-03-23T13:08:59;100027.50;;;6.66;41.41
75505;BME280;64085;54.974;73.410;2023-03-23T13:11:35;100050.06;;;6.72;42.39
75505;BME280;64085;54.974;73.410;2023-03-23T13:20:01;100070.00;;;6.90;42.45
75505;BME280;64085;54.974;73.410;2023-03-23T13:22:56;100076.28;;;6.69;44.22
75505;BME280;64085;54.974;73.410;2023-03-23T13:28:24;100051.78;;;6.35;47.35
75505;BME280;64085;54.974;73.410;2023-03-23T13:30:58;100087.41;;;6.43;42.85
75505;BME280;64085;54.974;73.410;2023-03-23T13:33:28;100096.97;;;6.37;44.12
75505;BME280;64085;54.974;73.410;2023-03-23T13:35:54;100092.50;;;6.33;43.19
75505;BME280;64085;54.974;73.410;2023-03-23T13:38:27;100097.88;;;6.20;47.40
75505;BME280;64085;54.974;73.410;2023-03-23T13:40:56;100107.53;;;6.27;46.27
75505;BME280;64085;54.974;73.410;2023-03-23T13:43:29;100106.13;;;6.12;46.74
75505;BME280;64085;54.974;73.410;2023-03-23T13:45:55;100112.66;;;5.99;44.35
75505;BME280;64085;54.974;73.410;2023-03-23T13:48:41;100113.47;;;5.99;46.39
75505;BME280;64085;54.974;73.410;2023-03-23T13:51:32;100112.81;;;5.93;45.69
75505;BME280;64085;54.974;73.410;2023-03-23T13:54:13;100121.72;;;5.90;45.57
75505;BME280;64085;54.974;73.410;2023-03-23T13:56:47;100130.06;;;6.03;47.84
75505;BME280;64085;54.974;73.410;2023-03-23T13:59:16;100124.59;;;5.94;46.12
75505;BME280;64085;54.974;73.410;2023-03-23T14:01:42;100136.69;;;6.02;44.10
75505;BME280;64085;54.974;73.410;2023-03-23T14:04:16;100127.81;;;5.87;43.58
75505;BME280;64085;54.974;73.410;2023-03-23T14:06:46;100142.19;;;5.93;44.39
75505;BME280;64085;54.974;73.410;2023-03-23T14:12:03;100139.75;;;6.09;44.44
75505;BME280;64085;54.974;73.410;2023-03-23T14:14:40;100151.59;;;6.30;46.47
75505;BME280;64085;54.974;73.410;2023-03-23T14:17:17;100152.19;;;6.44;45.71
75505;BME280;64085;54.974;73.410;2023-03-23T14:19:48;100147.19;;;6.38;44.21
75505;BME280;64085;54.974;73.410;2023-03-23T14:22:22;100150.16;;;6.33;44.68
75505;BME280;64085;54.974;73.410;2023-03-23T14:24:48;100154.06;;;6.23;43.13
75505;BME280;64085;54.974;73.410;2023-03-23T14:27:16;100162.44;;;6.27;44.67
75505;BME280;64085;54.974;73.410;2023-03-23T14:29:43;100161.16;;;6.24;43.91
75505;BME280;64085;54.974;73.410;2023-03-23T14:32:17;100168.91;;;6.31;44.57
75505;BME280;64085;54.974;73.410;2023-03-23T14:34:47;100169.69;;;6.31;43.29
75505;BME280;64085;54.974;73.410;2023-03-23T14:37:14;100168.56;;;6.32;46.34